Time;durP1;ratioP1;P1;durP2;ratioP2;P2;SDS_P1;SDS_P2;PMS_P1;PMS_P2;Temp;Humidity;BMP_temperature;BMP_pressure;BME280_temperature;BME280_humidity;BME280_pressure;Samples;Min_cycle;Max_cycle;Signal;HPM_P1;HPM_P2
2021/07/12 00:01:19;;;;;;;9.93;8.90;;;;;;;21.48;58.00;93756.38;6174556;23;20427;-85
2021/07/12 00:03:44;;;;;;;13.65;9.70;;;;;;;21.29;58.11;93754.53;6202397;23;20012;-85
2021/07/12 00:06:10;;;;;;;11.05;9.95;;;;;;;21.11;58.80;93754.13;6200265;23;20479;-85
2021/07/12 00:08:36;;;;;;;12.45;9.32;;;;;;;20.80;60.07;93738.19;6201765;23;20095;-85
2021/07/12 00:11:01;;;;;;;10.18;8.82;;;;;;;20.77;60.22;93727.38;6202840;23;20348;-85
2021/07/12 00:13:26;;;;;;;10.43;8.82;;;;;;;20.98;58.35;93752.75;6201932;23;20367;-85
2021/07/12 00:15:52;;;;;;;10.88;7.95;;;;;;;20.93;57.93;93720.78;6148693;23;20435;-86
2021/07/12 00:18:22;;;;;;;9.48;8.57;;;;;;;21.06;58.33;93759.81;6212191;23;20008;-85
2021/07/12 00:20:51;;;;;;;12.30;8.52;;;;;;;20.87;58.82;93749.06;6201764;23;20031;-86
2021/07/12 00:23:16;;;;;;;10.13;9.20;;;;;;;20.69;59.04;93727.22;6200559;23;20020;-86
2021/07/12 00:25:42;;;;;;;10.05;8.43;;;;;;;20.87;59.14;93756.34;6199123;23;20106;-86
2021/07/12 00:28:07;;;;;;;23.05;10.27;;;;;;;20.86;60.64;93769.03;6210027;23;20008;-86
2021/07/12 00:30:33;;;;;;;15.20;9.07;;;;;;;20.79;61.62;93768.88;6212002;23;20039;-86
2021/07/12 00:32:59;;;;;;;12.52;9.27;;;;;;;20.79;62.30;93774.22;6200356;23;20024;-86
2021/07/12 00:35:25;;;;;;;12.40;9.68;;;;;;;20.72;63.25;93771.41;6137919;23;20045;-86
2021/07/12 00:37:52;;;;;;;11.80;9.00;;;;;;;20.64;62.32;93756.25;6168559;23;20024;-85
2021/07/12 00:40:19;;;;;;;10.88;9.05;;;;;;;20.48;62.50;93747.47;6208173;23;20048;-85
2021/07/12 00:42:49;;;;;;;10.60;9.52;;;;;;;20.59;62.92;93778.03;6175197;23;20009;-85
2021/07/12 00:45:19;;;;;;;9.40;8.60;;;;;;;20.39;62.51;93749.59;6186032;23;20727;-84
2021/07/12 00:47:45;;;;;;;18.35;10.07;;;;;;;20.40;63.44;93769.94;6174251;23;20355;-85
2021/07/12 00:50:11;;;;;;;9.73;8.52;;;;;;;20.35;63.55;93775.56;6204451;23;20024;-85
2021/07/12 00:52:37;;;;;;;12.07;9.80;;;;;;;20.45;63.79;93783.09;6200396;23;20020;-85
2021/07/12 00:55:13;;;;;;;13.07;9.88;;;;;;;20.32;63.67;93750.22;6198544;23;20031;-85
2021/07/12 00:57:39;;;;;;;10.85;9.75;;;;;;;20.17;64.82;93767.88;6212683;23;20308;-84
2021/07/12 01:00:06;;;;;;;10.07;9.07;;;;;;;20.18;65.01;93774.03;6172760;23;20021;-85
2021/07/12 01:02:31;;;;;;;11.40;9.48;;;;;;;20.26;64.67;93768.47;6202650;23;20009;-85
2021/07/12 01:04:56;;;;;;;10.73;8.75;;;;;;;20.18;64.95;93757.94;6199486;23;20071;-85
2021/07/12 01:07:22;;;;;;;10.85;9.75;;;;;;;20.21;64.73;93768.75;6193981;23;20440;-85
2021/07/12 01:09:47;;;;;;;11.57;8.93;;;;;;;20.23;65.03;93771.84;6200147;23;20079;-85
2021/07/12 01:12:37;;;;;;;12.05;9.27;;;;;;;20.22;65.31;93773.00;6199244;23;20024;-86
2021/07/12 01:15:09;;;;;;;11.82;9.30;;;;;;;20.25;65.33;93772.28;6201499;23;20038;-85
2021/07/12 01:18:11;;;;;;;14.05;9.30;;;;;;;20.36;64.10;93774.44;6171603;23;20370;-84
2021/07/12 01:21:17;;;;;;;11.82;9.35;;;;;;;20.40;63.42;93778.00;6199853;23;20070;-85
2021/07/12 01:24:23;;;;;;;14.00;9.57;;;;;;;20.27;63.70;93766.56;6173198;23;20156;-85
2021/07/12 01:27:24;;;;;;;12.43;9.82;;;;;;;20.09;63.59;93739.31;6172277;23;20094;-85
2021/07/12 01:30:22;;;;;;;13.32;9.73;;;;;;;20.16;64.08;93773.59;6175347;23;20405;-86
2021/07/12 01:33:06;;;;;;;10.52;9.32;;;;;;;20.12;64.38;93775.41;6136288;23;20459;-86
2021/07/12 01:35:59;;;;;;;10.38;9.38;;;;;;;20.11;63.76;93776.53;6205252;23;20430;-86
2021/07/12 01:38:47;;;;;;;16.95;9.57;;;;;;;20.03;63.88;93777.50;6203013;23;20191;-85
2021/07/12 01:41:50;;;;;;;9.63;8.65;;;;;;;19.96;64.10;93775.44;6204356;23;20341;-85
2021/07/12 01:44:27;;;;;;;12.75;9.60;;;;;;;19.84;64.74;93778.22;6205333;23;20020;-85
2021/07/12 01:47:03;;;;;;;10.60;9.50;;;;;;;19.56;65.51;93742.66;6206709;23;20032;-85
2021/07/12 01:49:47;;;;;;;10.40;9.30;;;;;;;19.89;65.04;93769.88;6175202;23;20021;-85
2021/07/12 01:52:26;;;;;;;11.75;9.40;;;;;;;19.84;65.36;93772.84;6210261;23;20410;-85
2021/07/12 01:54:52;;;;;;;11.60;10.48;;;;;;;19.95;65.33;93779.22;6175030;23;20027;-85
2021/07/12 01:57:24;;;;;;;11.85;10.23;;;;;;;19.75;65.56;93764.97;6215038;23;20347;-85
2021/07/12 01:59:59;;;;;;;12.30;8.93;;;;;;;19.57;65.60;93741.53;6175773;23;20008;-86
2021/07/12 02:02:27;;;;;;;;;;;;;;;19.87;65.05;93782.88;6174378;23;20020;-85
2021/07/12 02:04:57;;;;;;;10.57;9.48;;;;;;;19.54;65.75;93753.72;6201689;23;19939;-85
2021/07/12 02:07:24;;;;;;;11.90;10.32;;;;;;;19.54;66.32;93756.41;6171306;23;20021;-85
2021/07/12 02:09:51;;;;;;;11.75;10.18;;;;;;;19.88;66.03;93779.06;6199350;23;20015;-85
2021/07/12 02:12:20;;;;;;;11.48;10.13;;;;;;;19.75;66.47;93794.47;6202660;23;20366;-85
2021/07/12 02:14:46;;;;;;;14.68;9.70;;;;;;;19.85;65.81;93779.75;6203296;23;20657;-85
2021/07/12 02:17:14;;;;;;;17.83;10.27;;;;;;;19.61;65.44;93748.53;6205868;23;20112;-85
2021/07/12 02:19:42;;;;;;;10.77;9.00;;;;;;;19.74;65.94;93784.84;6206880;23;20017;-85
2021/07/12 02:22:08;;;;;;;11.85;10.30;;;;;;;19.35;66.53;93745.56;6173628;23;20027;-85
2021/07/12 02:24:38;;;;;;;12.98;9.40;;;;;;;19.29;67.49;93755.75;6214700;23;20004;-86
2021/07/12 02:27:04;;;;;;;12.93;10.75;;;;;;;19.31;67.85;93766.88;6154548;23;20471;-86
2021/07/12 02:29:31;;;;;;;13.82;10.13;;;;;;;19.30;67.73;93754.59;6204942;23;20205;-85
2021/07/12 02:32:00;;;;;;;10.80;9.77;;;;;;;19.38;67.80;93782.38;6173481;23;20024;-86
2021/07/12 02:34:26;;;;;;;15.50;11.32;;;;;;;19.31;68.44;93782.19;6200497;23;20419;-86
2021/07/12 02:36:56;;;;;;;16.63;11.00;;;;;;;19.23;68.15;93765.16;6171543;23;20486;-85
2021/07/12 02:39:22;;;;;;;12.45;10.57;;;;;;;19.39;68.34;93786.63;6204879;23;20015;-85
2021/07/12 02:41:49;;;;;;;12.48;11.20;;;;;;;19.16;68.71;93759.59;6198961;23;20291;-86
2021/07/12 02:44:18;;;;;;;14.98;10.95;;;;;;;19.37;68.12;93792.31;6174225;23;20043;-85
2021/07/12 02:46:44;;;;;;;11.98;10.75;;;;;;;19.31;68.35;93788.31;6174014;23;20419;-85
2021/07/12 02:49:10;;;;;;;13.50;10.80;;;;;;;19.32;68.32;93771.13;6202158;23;20023;-86
2021/07/12 02:51:42;;;;;;;12.45;10.68;;;;;;;19.38;68.99;93788.53;6212156;23;20074;-85
2021/07/12 02:54:11;;;;;;;12.73;11.35;;;;;;;19.29;69.31;93771.81;6202684;23;20012;-85
2021/07/12 02:56:37;;;;;;;13.52;11.63;;;;;;;19.40;69.15;93780.91;6173978;23;20344;-85
2021/07/12 02:59:03;;;;;;;13.43;11.35;;;;;;;19.22;68.89;93738.69;6172655;23;20024;-86
2021/07/12 03:01:29;;;;;;;12.25;11.05;;;;;;;19.36;68.84;93766.63;6199259;23;20100;-86
2021/07/12 03:03:54;;;;;;;14.52;12.02;;;;;;;19.53;68.78;93778.97;6171321;23;20448;-86
2021/07/12 03:06:27;;;;;;;12.80;11.15;;;;;;;19.33;69.79;93782.63;6202921;23;20283;-85
2021/07/12 03:09:06;;;;;;;12.13;10.82;;;;;;;19.04;70.31;93746.28;6172983;23;20863;-86
2021/07/12 03:11:46;;;;;;;13.80;11.65;;;;;;;19.28;70.38;93780.97;6173699;23;20020;-86
2021/07/12 03:14:37;;;;;;;13.52;10.35;;;;;;;19.39;70.59;93783.94;6173801;23;20087;-86
2021/07/12 03:17:05;;;;;;;13.77;10.98;;;;;;;19.51;69.97;93791.94;6174717;23;20107;-85
2021/07/12 03:19:38;;;;;;;12.77;11.40;;;;;;;19.48;69.92;93789.94;6199196;23;20467;-86
2021/07/12 03:22:07;;;;;;;14.13;10.85;;;;;;;19.70;68.94;93793.94;6174715;23;20066;-85
2021/07/12 03:24:36;;;;;;;11.82;10.15;;;;;;;19.81;68.26;93774.31;6203459;23;20000;-85
2021/07/12 03:27:03;;;;;;;12.70;9.90;;;;;;;20.11;67.00;93788.06;6202400;23;20075;-85
2021/07/12 03:29:30;;;;;;;14.73;9.82;;;;;;;20.35;66.11;93780.94;6203820;23;20495;-85
2021/07/12 03:31:59;;;;;;;13.45;10.25;;;;;;;20.68;65.01;93784.75;6200401;23;20024;-87
2021/07/12 03:34:28;;;;;;;12.48;9.80;;;;;;;21.06;63.65;93789.34;6199240;23;20020;-85
2021/07/12 03:36:59;;;;;;;15.20;10.02;;;;;;;21.18;62.05;93738.19;6198180;23;20008;-86
2021/07/12 03:39:29;;;;;;;11.38;9.43;;;;;;;21.32;61.31;93734.97;6213176;23;20172;-86
2021/07/12 03:41:57;;;;;;;10.07;9.00;;;;;;;21.59;60.39;93730.47;6173606;23;20020;-86
2021/07/12 03:44:26;;;;;;;14.68;9.40;;;;;;;22.16;59.31;93777.91;6171763;23;20281;-86
2021/07/12 03:46:53;;;;;;;15.93;8.50;;;;;;;22.40;58.35;93768.66;6205769;23;20398;-87
2021/07/12 03:49:19;;;;;;;12.80;8.85;;;;;;;22.84;56.48;93782.38;6207473;23;20024;-86
2021/07/12 03:51:49;;;;;;;11.45;9.07;;;;;;;23.29;54.98;93763.28;6202346;23;20015;-87
2021/07/12 03:54:18;;;;;;;10.00;8.65;;;;;;;23.80;54.11;93788.88;6171702;23;20124;-87
2021/07/12 03:56:44;;;;;;;12.95;8.38;;;;;;;24.29;53.21;93778.47;6199225;23;20100;-86
2021/07/12 03:59:10;;;;;;;9.45;8.55;;;;;;;24.50;51.96;93735.41;6139474;23;20096;-86
2021/07/12 04:01:36;;;;;;;12.15;9.45;;;;;;;24.99;50.19;93731.44;6163679;23;20083;-87
2021/07/12 04:04:04;;;;;;;15.23;9.30;;;;;;;25.53;49.69;93748.59;6170029;23;20000;-87
2021/07/12 04:06:30;;;;;;;11.50;8.73;;;;;;;25.73;48.33;93744.41;6175272;23;20020;-87
2021/07/12 04:09:02;;;;;;;11.65;8.60;;;;;;;25.85;47.55;93730.50;6170818;23;20335;-87
2021/07/12 04:11:33;;;;;;;13.57;9.05;;;;;;;26.22;46.88;93730.91;6201573;23;20095;-87
2021/07/12 04:14:00;;;;;;;10.73;9.65;;;;;;;26.93;45.55;93787.72;6204911;23;20078;-88
2021/07/12 04:16:26;;;;;;;13.98;8.82;;;;;;;27.02;44.51;93735.78;6207301;23;20043;-87
2021/07/12 04:18:51;;;;;;;11.65;9.23;;;;;;;27.90;43.68;93788.88;6209077;23;20004;-87
2021/07/12 04:21:17;;;;;;;20.77;9.55;;;;;;;28.23;42.57;93768.47;6213300;23;20011;-87
2021/07/12 04:23:43;;;;;;;10.40;9.32;;;;;;;28.72;41.56;93789.81;6201384;23;20020;-87
2021/07/12 04:26:20;;;;;;;12.98;7.70;;;;;;;29.19;40.96;93792.78;6205079;23;20411;-87
2021/07/12 04:28:54;;;;;;;10.10;8.48;;;;;;;29.45;39.71;93797.56;6174250;23;20027;-87
2021/07/12 04:31:19;;;;;;;10.63;8.65;;;;;;;29.70;39.57;93800.75;6171520;23;20403;-88
2021/07/12 04:33:45;;;;;;;10.18;9.18;;;;;;;29.91;38.98;93785.34;6174731;23;20070;-87
2021/07/12 04:36:12;;;;;;;10.68;8.63;;;;;;;30.22;38.35;93751.34;6199430;23;20444;-88
2021/07/12 04:38:39;;;;;;;17.42;10.07;;;;;;;30.81;36.72;93776.09;6198217;23;20120;-88
2021/07/12 04:41:04;;;;;;;17.92;9.90;;;;;;;30.80;36.70;93751.94;6172207;23;20020;-87
2021/07/12 04:43:31;;;;;;;23.30;8.98;;;;;;;31.04;36.39;93771.78;6193581;23;20024;-88
2021/07/12 04:45:56;;;;;;;20.92;9.60;;;;;;;31.14;36.64;93782.50;6172198;23;20044;-87
2021/07/12 04:48:29;;;;;;;43.55;11.70;;;;;;;31.37;35.53;93759.84;6175417;23;20267;-87
2021/07/12 04:50:55;;;;;;;17.00;8.90;;;;;;;31.89;34.69;93765.38;6200581;23;20028;-88
2021/07/12 04:53:20;;;;;;;12.63;8.52;;;;;;;32.34;33.93;93789.38;6198507;23;20020;-87
2021/07/12 04:55:46;;;;;;;12.55;7.60;;;;;;;32.33;33.71;93753.06;6170807;23;20023;-88
2021/07/12 04:58:12;;;;;;;11.68;8.15;;;;;;;32.68;33.25;93754.16;6166317;23;20020;-88
2021/07/12 05:00:38;;;;;;;9.98;7.78;;;;;;;33.12;32.82;93760.03;6175486;23;20507;-88
2021/07/12 05:03:06;;;;;;;10.50;7.80;;;;;;;33.34;33.00;93771.97;6138307;23;20052;-88
2021/07/12 05:05:31;;;;;;;13.88;8.93;;;;;;;33.47;32.39;93742.66;6173675;23;20107;-87
2021/07/12 05:07:57;;;;;;;14.65;9.15;;;;;;;33.45;32.02;93747.78;6163316;23;20092;-88
2021/07/12 05:10:26;;;;;;;12.98;9.82;;;;;;;33.48;32.27;93766.09;6185688;23;20088;-89
2021/07/12 05:12:52;;;;;;;17.15;9.43;;;;;;;33.43;32.54;93748.22;6163861;23;20016;-88
2021/07/12 05:15:17;;;;;;;12.80;8.68;;;;;;;34.07;31.86;93783.94;6201055;23;20339;-87
2021/07/12 05:17:43;;;;;;;13.13;9.48;;;;;;;34.26;31.10;93753.56;6199492;23;20119;-89
2021/07/12 05:20:09;;;;;;;22.90;9.80;;;;;;;34.09;30.98;93792.50;6169770;23;20075;-88
2021/07/12 05:22:35;;;;;;;11.30;10.10;;;;;;;34.00;31.63;93779.47;6199487;23;20012;-84
2021/07/12 05:25:04;;;;;;;15.10;10.55;;;;;;;33.30;32.54;93774.81;6200588;23;20001;-85
2021/07/12 05:27:32;;;;;;;15.77;9.88;;;;;;;33.19;33.37;93759.88;6205026;23;20053;-87
2021/07/12 05:30:05;;;;;;;13.98;9.40;;;;;;;33.17;33.90;93801.41;6199783;23;20040;-88
2021/07/12 05:32:31;;;;;;;12.00;10.73;;;;;;;32.54;34.52;93766.22;6198001;23;20083;-87
2021/07/12 05:34:56;;;;;;;18.23;10.48;;;;;;;32.92;34.45;93777.38;6172657;23;20016;-87
2021/07/12 05:37:22;;;;;;;19.98;10.75;;;;;;;33.35;32.98;93762.53;6173953;23;20071;-88
2021/07/12 05:39:51;;;;;;;13.27;10.82;;;;;;;33.33;33.07;93749.28;6204411;23;20446;-88
2021/07/12 05:42:16;;;;;;;23.02;12.57;;;;;;;33.83;32.88;93802.69;6170909;23;20025;-86
2021/07/12 05:44:41;;;;;;;14.95;11.68;;;;;;;33.59;33.00;93793.19;6174076;23;20555;-86
2021/07/12 05:47:07;;;;;;;16.98;12.82;;;;;;;32.98;33.70;93761.22;6174117;23;20028;-88
2021/07/12 05:49:32;;;;;;;19.13;12.15;;;;;;;33.93;32.75;93807.84;6168838;23;20032;-86
2021/07/12 05:51:58;;;;;;;22.63;11.63;;;;;;;34.58;31.59;93790.97;6168185;23;20490;-84
2021/07/12 05:54:23;;;;;;;13.07;10.60;;;;;;;35.17;30.72;93778.44;6183208;23;20420;-86
2021/07/12 05:56:49;;;;;;;15.48;10.52;;;;;;;35.94;29.79;93809.81;6166568;23;20356;-86
2021/07/12 05:59:14;;;;;;;15.20;10.63;;;;;;;36.27;29.15;93808.16;6172214;23;20435;-86
2021/07/12 06:01:40;;;;;;;12.90;9.45;;;;;;;36.78;29.44;93807.75;6168798;23;20017;-80
2021/07/12 06:04:05;;;;;;;13.05;10.65;;;;;;;36.99;27.34;93798.59;6179916;23;20007;-80
2021/07/12 06:06:30;;;;;;;22.30;10.80;;;;;;;37.03;27.96;93809.47;6182944;23;20005;-80
2021/07/12 06:08:56;;;;;;;18.70;11.05;;;;;;;36.96;27.74;93805.00;6170616;23;20348;-80
2021/07/12 06:11:21;;;;;;;12.68;9.90;;;;;;;37.69;27.26;93810.56;6173285;23;20318;-79
2021/07/12 06:13:47;;;;;;;14.45;10.27;;;;;;;37.91;26.63;93808.38;6170226;23;20463;-80
2021/07/12 06:16:12;;;;;;;23.52;10.27;;;;;;;38.03;26.56;93806.69;6167281;23;20017;-81
2021/07/12 06:18:37;;;;;;;14.80;10.55;;;;;;;37.38;27.13;93819.00;6171690;23;20056;-81
2021/07/12 06:21:03;;;;;;;16.08;10.52;;;;;;;36.28;28.36;93801.44;6167491;23;20021;-80
2021/07/12 06:23:28;;;;;;;17.83;11.02;;;;;;;36.01;29.08;93815.06;6169590;23;20024;-80
2021/07/12 06:25:54;;;;;;;24.63;12.25;;;;;;;35.24;30.08;93805.66;6167653;23;20519;-80
2021/07/12 06:28:19;;;;;;;16.65;11.45;;;;;;;35.52;29.86;93815.66;6178396;23;20021;-80
2021/07/12 06:30:45;;;;;;;17.10;11.73;;;;;;;35.83;28.76;93820.44;6183673;23;20011;-80
2021/07/12 06:33:10;;;;;;;18.20;11.02;;;;;;;35.91;28.91;93819.75;6166832;23;20044;-80
2021/07/12 06:35:36;;;;;;;19.55;11.50;;;;;;;36.05;28.56;93821.19;6168121;23;20017;-80
2021/07/12 06:38:02;;;;;;;17.00;11.27;;;;;;;36.70;28.60;93829.28;6167728;23;20108;-80
2021/07/12 06:40:28;;;;;;;16.85;10.70;;;;;;;37.55;27.57;93820.25;6166124;23;20084;-81
2021/07/12 06:42:53;;;;;;;16.33;9.88;;;;;;;38.34;26.26;93831.28;6167112;23;20821;-81
2021/07/12 06:45:19;;;;;;;15.52;10.70;;;;;;;38.26;26.28;93824.56;6172649;23;20005;-80
2021/07/12 06:47:46;;;;;;;15.30;10.40;;;;;;;37.67;26.76;93819.31;6170839;23;20021;-81
2021/07/12 06:50:12;;;;;;;16.70;10.93;;;;;;;37.21;27.26;93820.53;6169861;23;20246;-81
2021/07/12 06:52:38;;;;;;;14.35;10.27;;;;;;;37.34;27.53;93812.84;6174596;23;20013;-79
2021/07/12 06:55:04;;;;;;;14.90;10.40;;;;;;;38.42;26.91;93815.88;6178427;23;20009;-78
2021/07/12 06:57:29;;;;;;;22.38;11.98;;;;;;;38.86;25.54;93797.59;6182586;23;20001;-79
2021/07/12 06:59:56;;;;;;;17.00;10.80;;;;;;;38.69;26.11;93810.28;6169042;23;20021;-79
2021/07/12 07:02:22;;;;;;;13.70;10.68;;;;;;;38.31;26.60;93815.66;6165448;23;20534;-81
2021/07/12 07:04:47;;;;;;;17.98;10.98;;;;;;;39.08;25.24;93813.91;6166931;23;20052;-81
2021/07/12 07:07:13;;;;;;;18.27;10.27;;;;;;;39.32;25.44;93808.38;6164793;23;20023;-81
2021/07/12 07:09:38;;;;;;;13.15;10.50;;;;;;;40.01;24.55;93809.91;6179963;23;20772;-81
2021/07/12 07:12:04;;;;;;;12.80;9.05;;;;;;;40.56;24.07;93816.38;6158016;23;20024;-82
2021/07/12 07:14:30;;;;;;;12.65;10.02;;;;;;;40.92;24.02;93822.69;6163310;23;20116;-81
2021/07/12 07:16:55;;;;;;;15.55;9.10;;;;;;;40.76;23.64;93826.75;6166665;23;20082;-82
2021/07/12 07:19:21;;;;;;;17.30;9.65;;;;;;;40.16;23.75;93824.50;6152158;23;20395;-82
2021/07/12 07:21:51;;;;;;;14.23;8.45;;;;;;;40.41;24.16;93815.63;6168754;23;20004;-81
2021/07/12 07:24:18;;;;;;;12.25;9.50;;;;;;;40.55;23.71;93822.38;6164959;23;20368;-79
2021/07/12 07:26:43;;;;;;;16.52;8.70;;;;;;;40.29;24.31;93827.78;6166963;23;20016;-78
2021/07/12 07:29:08;;;;;;;20.23;9.73;;;;;;;40.04;24.31;93818.00;6168235;23;20017;-79
2021/07/12 07:31:34;;;;;;;14.20;8.82;;;;;;;40.58;23.42;93822.19;6167193;23;20021;-78
2021/07/12 07:33:59;;;;;;;18.02;8.55;;;;;;;40.82;23.21;93805.41;6178500;23;20539;-78
2021/07/12 07:36:25;;;;;;;16.63;10.10;;;;;;;41.07;23.00;93818.63;6180302;23;20079;-78
2021/07/12 07:38:51;;;;;;;13.90;8.60;;;;;;;42.11;22.76;93805.69;6168153;23;20016;-78
2021/07/12 07:41:18;;;;;;;16.70;9.80;;;;;;;41.88;21.93;93820.63;6170496;23;20021;-79
2021/07/12 07:43:44;;;;;;;19.02;9.48;;;;;;;41.62;21.94;93817.03;6166610;23;20635;-79
2021/07/12 07:46:09;;;;;;;12.13;7.85;;;;;;;41.56;20.52;93811.41;6167653;23;20021;-78
2021/07/12 07:48:35;;;;;;;16.80;7.60;;;;;;;41.90;22.09;93809.78;6171948;23;20008;-79
2021/07/12 07:51:00;;;;;;;13.82;8.23;;;;;;;42.76;20.92;93811.53;6168450;23;20075;-79
2021/07/12 07:53:26;;;;;;;17.85;8.10;;;;;;;42.66;21.21;93818.50;6168916;23;20091;-78
2021/07/12 07:55:52;;;;;;;12.70;8.23;;;;;;;43.34;19.81;93823.22;6172144;23;20029;-78
2021/07/12 07:58:17;;;;;;;6.32;5.35;;;;;;;42.17;20.10;93817.59;6172914;23;20620;-80
2021/07/12 08:00:43;;;;;;;10.00;6.00;;;;;;;41.88;19.96;93813.03;6180698;23;20010;-80
2021/07/12 08:03:09;;;;;;;7.47;5.43;;;;;;;42.32;19.36;93815.47;6168399;23;20115;-79
2021/07/12 08:05:35;;;;;;;8.30;5.78;;;;;;;42.09;20.00;93815.75;6167761;23;20025;-79
2021/07/12 08:08:00;;;;;;;6.70;6.03;;;;;;;42.15;20.06;93819.34;6170833;23;20352;-78
2021/07/12 08:10:26;;;;;;;11.07;6.43;;;;;;;41.09;20.45;93810.59;6166525;23;20017;-79
2021/07/12 08:12:52;;;;;;;8.93;6.70;;;;;;;41.31;20.50;93809.34;6166497;23;20031;-78
2021/07/12 08:15:18;;;;;;;9.38;6.68;;;;;;;42.40;20.47;93812.25;6180797;23;20004;-80
2021/07/12 08:17:46;;;;;;;8.48;6.50;;;;;;;43.00;18.83;93814.69;6168633;23;20016;-78
2021/07/12 08:20:14;;;;;;;8.82;5.93;;;;;;;42.92;18.67;93819.19;6165109;23;20021;-79
2021/07/12 08:22:41;;;;;;;6.25;5.43;;;;;;;42.83;17.91;93811.03;6173698;23;20340;-79
2021/07/12 08:25:08;;;;;;;7.60;5.97;;;;;;;42.89;18.85;93817.41;6168329;23;20020;-79
2021/07/12 08:27:35;;;;;;;14.23;6.47;;;;;;;43.17;19.31;93807.22;6179736;23;20005;-79
2021/07/12 08:30:01;;;;;;;9.70;6.50;;;;;;;42.29;19.62;93816.47;6168005;23;20013;-79
2021/07/12 08:32:27;;;;;;;8.70;6.38;;;;;;;41.87;19.66;93821.88;6166084;23;20015;-80
2021/07/12 08:34:52;;;;;;;7.85;6.40;;;;;;;41.73;19.79;93819.94;6165962;23;20483;-78
2021/07/12 08:37:18;;;;;;;9.07;6.07;;;;;;;41.66;19.11;93810.03;6164710;23;20063;-80
2021/07/12 08:39:44;;;;;;;6.38;5.70;;;;;;;41.50;18.38;93811.34;6170747;23;20012;-78
2021/07/12 08:42:13;;;;;;;11.50;6.00;;;;;;;41.24;19.27;93821.63;6167727;23;20013;-79
2021/07/12 08:44:39;;;;;;;13.70;6.57;;;;;;;40.10;20.11;93813.34;6170985;23;20517;-80
2021/07/12 08:47:07;;;;;;;9.40;5.90;;;;;;;40.25;20.54;93810.59;6168350;23;20029;-78
2021/07/12 08:49:33;;;;;;;10.50;6.82;;;;;;;40.88;19.84;93816.59;6177055;23;20013;-79
2021/07/12 08:52:04;;;;;;;7.38;6.45;;;;;;;40.87;19.71;93815.81;6178762;23;20013;-78
2021/07/12 08:54:29;;;;;;;8.75;6.63;;;;;;;41.06;20.01;93806.00;6171959;23;20040;-79
2021/07/12 08:56:55;;;;;;;30.52;7.35;;;;;;;40.62;19.83;93810.91;6168882;23;20044;-80
2021/07/12 08:59:30;;;;;;;7.43;5.75;;;;;;;40.82;20.45;93807.41;6168320;23;20276;-80
2021/07/12 09:02:16;;;;;;;10.32;5.93;;;;;;;41.12;20.11;93803.31;6165836;23;20045;-79
2021/07/12 09:04:52;;;;;;;10.13;5.90;;;;;;;41.64;18.38;93804.19;6176483;23;20341;-81
2021/07/12 09:07:21;;;;;;;10.57;6.78;;;;;;;41.09;19.36;93812.63;6167888;23;20021;-80
2021/07/12 09:10:11;;;;;;;10.88;6.40;;;;;;;40.98;19.88;93815.22;6171056;23;20084;-81
2021/07/12 09:12:55;;;;;;;10.63;6.88;;;;;;;40.61;19.42;93804.63;6166969;23;20017;-80
2021/07/12 09:15:22;;;;;;;10.70;6.47;;;;;;;39.65;19.80;93820.06;6170768;23;20111;-80
2021/07/12 09:17:52;;;;;;;13.50;5.93;;;;;;;39.93;20.35;93800.47;6171212;23;20502;-80
2021/07/12 09:20:31;;;;;;;6.90;5.65;;;;;;;39.90;19.09;93801.41;6167558;23;20428;-79
2021/07/12 09:22:57;;;;;;;9.93;6.90;;;;;;;38.95;20.76;93803.06;6171810;23;20096;-79
2021/07/12 09:25:28;;;;;;;11.23;7.03;;;;;;;38.64;21.25;93810.91;6169922;23;20019;-80
2021/07/12 09:27:56;;;;;;;10.55;6.43;;;;;;;38.34;21.63;93809.97;6141718;23;20068;-80
2021/07/12 09:30:21;;;;;;;10.27;6.60;;;;;;;37.96;23.41;93807.75;6179308;23;20120;-80
2021/07/12 09:32:48;;;;;;;12.38;7.20;;;;;;;36.97;23.10;93817.56;6165277;23;20044;-79
2021/07/12 09:35:17;;;;;;;9.73;7.20;;;;;;;36.23;24.65;93810.28;6164066;23;20063;-81
2021/07/12 09:37:46;;;;;;;8.95;8.05;;;;;;;35.73;25.21;93811.38;6172796;23;20689;-79
2021/07/12 09:40:14;;;;;;;7.43;6.72;;;;;;;35.39;25.68;93803.94;6173405;23;20099;-80
2021/07/12 09:42:44;;;;;;;9.32;6.90;;;;;;;35.00;26.67;93807.25;6168542;23;20005;-80
2021/07/12 09:45:12;;;;;;;11.50;6.55;;;;;;;34.90;25.32;93811.88;6166359;23;20335;-80
2021/07/12 09:47:40;;;;;;;9.77;6.90;;;;;;;35.07;26.12;93807.00;6167752;23;20405;-80
2021/07/12 09:50:10;;;;;;;8.63;6.97;;;;;;;34.90;26.79;93816.59;6169492;23;20024;-80
2021/07/12 09:52:42;;;;;;;9.85;7.38;;;;;;;34.56;26.17;93814.56;6165911;23;20020;-80
2021/07/12 09:55:30;;;;;;;11.30;7.13;;;;;;;34.32;27.59;93814.13;6165296;23;20001;-81
2021/07/12 09:58:15;;;;;;;7.82;7.03;;;;;;;34.03;26.57;93802.47;6177528;23;20059;-81
2021/07/12 10:00:50;;;;;;;10.13;7.10;;;;;;;34.12;27.22;93791.63;6181427;23;20067;-79
2021/07/12 10:03:20;;;;;;;7.45;6.75;;;;;;;34.47;27.04;93817.22;6167806;23;20284;-82
2021/07/12 10:05:46;;;;;;;9.98;6.50;;;;;;;34.38;26.53;93806.13;6166172;23;20025;-80
2021/07/12 10:08:13;;;;;;;11.80;7.10;;;;;;;34.19;25.68;93802.41;6165463;23;20605;-80
2021/07/12 10:10:39;;;;;;;9.10;6.65;;;;;;;34.11;26.77;93801.06;6171048;23;20024;-80
2021/07/12 10:13:05;;;;;;;8.18;6.80;;;;;;;34.32;26.40;93809.44;6166109;23;20008;-81
2021/07/12 10:15:32;;;;;;;7.88;6.93;;;;;;;34.13;26.37;93806.88;6166200;23;20005;-80
2021/07/12 10:17:58;;;;;;;9.27;7.18;;;;;;;33.82;27.07;93796.44;6167258;23;20363;-79
2021/07/12 10:20:24;;;;;;;10.25;6.30;;;;;;;33.86;27.30;93802.59;6168040;23;20103;-80
2021/07/12 10:22:51;;;;;;;7.78;7.07;;;;;;;33.36;27.15;93796.97;6162136;23;20013;-81
2021/07/12 10:25:20;;;;;;;10.50;6.85;;;;;;;33.35;28.64;93785.22;6163331;23;20012;-80
2021/07/12 10:27:47;;;;;;;7.20;6.55;;;;;;;33.48;27.66;93788.00;6167713;23;20016;-79
2021/07/12 10:30:23;;;;;;;10.73;7.65;;;;;;;33.46;27.28;93784.94;6165855;23;20441;-80
2021/07/12 10:32:55;;;;;;;10.98;6.63;;;;;;;33.41;27.65;93793.69;6138388;23;20021;-80
2021/07/12 10:35:44;;;;;;;11.02;8.82;;;;;;;33.76;27.56;93781.75;6164821;23;20017;-80
2021/07/12 10:38:12;;;;;;;7.45;6.75;;;;;;;33.84;27.04;93783.06;6165808;23;20023;-79
2021/07/12 10:40:45;;;;;;;8.13;7.30;;;;;;;33.79;26.78;93785.56;6166467;23;20025;-80
2021/07/12 10:43:10;;;;;;;7.28;6.53;;;;;;;33.70;26.19;93780.75;6164326;23;20021;-80
2021/07/12 10:45:39;;;;;;;11.32;6.72;;;;;;;33.49;27.91;93778.59;6167987;23;20414;-79
2021/07/12 10:48:06;;;;;;;12.07;6.88;;;;;;;33.44;26.58;93777.16;6169029;23;20028;-80
2021/07/12 10:50:34;;;;;;;7.72;6.55;;;;;;;33.77;26.95;93774.28;6169004;23;20017;-81
2021/07/12 10:53:01;;;;;;;10.52;6.53;;;;;;;33.93;26.08;93768.69;6164431;23;20327;-80
2021/07/12 10:55:34;;;;;;;12.40;7.30;;;;;;;33.56;27.26;93761.19;6168134;23;20009;-78
2021/07/12 10:58:21;;;;;;;12.60;6.90;;;;;;;33.09;28.07;93784.34;6161033;23;20001;-79
2021/07/12 11:00:49;;;;;;;12.70;6.75;;;;;;;32.59;29.17;93773.13;6163017;23;20070;-80
2021/07/12 11:03:34;;;;;;;11.23;7.78;;;;;;;32.61;28.73;93773.47;6136005;23;20647;-80
2021/07/12 11:06:00;;;;;;;9.00;8.10;;;;;;;32.58;28.34;93771.59;6160350;23;20039;-79
2021/07/12 11:08:48;;;;;;;9.60;7.15;;;;;;;32.52;29.72;93781.50;6121325;23;20469;-79
2021/07/12 11:11:22;;;;;;;9.50;6.88;;;;;;;32.25;29.72;93776.31;6129510;23;20018;-81
2021/07/12 11:14:09;;;;;;;9.70;6.30;;;;;;;32.49;27.84;93774.16;6163847;23;20017;-80
2021/07/12 11:16:42;;;;;;;10.02;7.03;;;;;;;32.61;28.34;93776.97;6136866;23;20687;-79
2021/07/12 11:19:31;;;;;;;8.50;7.30;;;;;;;32.94;28.65;93772.22;6164821;23;20066;-79
2021/07/12 11:22:22;;;;;;;11.07;6.85;;;;;;;33.12;27.78;93776.47;6172993;23;20009;-79
2021/07/12 11:25:05;;;;;;;11.73;7.53;;;;;;;33.01;29.01;93771.28;6170467;23;20009;-79
2021/07/12 11:27:37;;;;;;;8.82;7.68;;;;;;;32.86;29.70;93776.34;6141233;23;20074;-80
2021/07/12 11:30:35;;;;;;;12.02;7.32;;;;;;;32.66;28.69;93773.75;6170173;23;20084;-79
2021/07/12 11:33:01;;;;;;;10.32;8.02;;;;;;;32.59;29.52;93762.19;6166581;23;20070;-80
2021/07/12 11:35:29;;;;;;;7.78;6.65;;;;;;;32.59;28.54;93759.47;6173714;23;20017;-79